LTAY/DNZ METAR and TAF weather

Enter ICAO airport designator
Station Type Date Time Source
LTAY METAR 2021/04/17 02:50 UTC NOAA

LTAY 170250Z 15006KT 9999 SCT035 BKN100 15/03 Q1017


Station Type Date Time Source
LTAY Decoded METAR 2021/04/17 02:50 UTC NOAA

Cardak, Turkey (LTAY) 37-47N 029-42E
Apr 16, 2021 - 10:50 PM EDT / 2021.04.17 0250 UTC
Wind: from the SSE (150 degrees) at 7 MPH (6 KT):0
Visibility: greater than 7 mile(s):0
Sky conditions: mostly cloudy
Temperature: 59 F (15 C)
Dew Point: 37 F (3 C)
Relative Humidity: 44%
Pressure (altimeter): 30.03 in. Hg (1017 hPa)
ob: LTAY 170250Z 15006KT 9999 SCT035 BKN100 15/03 Q1017
cycle: 3

Station Type Date Time Source
LTAY TAF UTC NOAA

Error!

Example: see airport list